sensor_id;sensor_type;location;lat;lon;timestamp;pressure;altitude;pressure_sealevel;temperature;humidity
34237;BME280;20501;45.956;13.632;2022-12-17T00:00:41;99870.09;;;9.21;84.29
34237;BME280;20501;45.956;13.632;2022-12-17T00:03:25;99873.06;;;9.55;82.13
34237;BME280;20501;45.956;13.632;2022-12-17T00:06:09;99875.75;;;9.55;81.63
34237;BME280;20501;45.956;13.632;2022-12-17T00:08:53;99877.41;;;9.38;83.58
34237;BME280;20501;45.956;13.632;2022-12-17T00:11:37;99885.31;;;9.40;83.09
34237;BME280;20501;45.956;13.632;2022-12-17T00:14:21;99881.69;;;9.59;82.93
34237;BME280;20501;45.956;13.632;2022-12-17T00:17:06;99892.53;;;9.11;84.89
34237;BME280;20501;45.956;13.632;2022-12-17T00:19:50;99890.47;;;10.69;76.29
34237;BME280;20501;45.956;13.632;2022-12-17T00:22:33;99885.28;;;10.50;77.01
34237;BME280;20501;45.956;13.632;2022-12-17T00:25:17;99872.53;;;9.70;82.80
34237;BME280;20501;45.956;13.632;2022-12-17T00:28:01;99850.97;;;9.88;80.57
34237;BME280;20501;45.956;13.632;2022-12-17T00:30:51;99846.81;;;11.09;74.65
34237;BME280;20501;45.956;13.632;2022-12-17T00:33:35;99839.75;;;11.67;71.70
34237;BME280;20501;45.956;13.632;2022-12-17T00:36:19;99849.09;;;11.89;71.10
34237;BME280;20501;45.956;13.632;2022-12-17T00:39:03;99852.31;;;11.85;71.08
34237;BME280;20501;45.956;13.632;2022-12-17T00:41:47;99863.38;;;12.16;69.13
34237;BME280;20501;45.956;13.632;2022-12-17T00:44:31;99873.88;;;12.28;68.82
34237;BME280;20501;45.956;13.632;2022-12-17T00:47:15;99883.88;;;11.59;73.03
34237;BME280;20501;45.956;13.632;2022-12-17T00:49:59;99886.38;;;12.12;69.38
34237;BME280;20501;45.956;13.632;2022-12-17T00:52:43;99892.00;;;10.90;74.65
34237;BME280;20501;45.956;13.632;2022-12-17T00:55:27;99897.00;;;11.46;74.48
34237;BME280;20501;45.956;13.632;2022-12-17T00:58:11;99899.69;;;11.97;70.53
34237;BME280;20501;45.956;13.632;2022-12-17T01:00:59;99902.19;;;11.74;73.44
34237;BME280;20501;45.956;13.632;2022-12-17T01:03:44;99909.31;;;11.06;76.04
34237;BME280;20501;45.956;13.632;2022-12-17T01:06:27;99917.91;;;11.01;76.23
34237;BME280;20501;45.956;13.632;2022-12-17T01:09:11;99924.09;;;11.54;72.11
34237;BME280;20501;45.956;13.632;2022-12-17T01:11:55;99923.28;;;12.21;69.27
34237;BME280;20501;45.956;13.632;2022-12-17T01:14:39;99922.97;;;11.30;73.95
34237;BME280;20501;45.956;13.632;2022-12-17T01:17:23;99920.13;;;11.40;74.96
34237;BME280;20501;45.956;13.632;2022-12-17T01:20:07;99921.06;;;12.08;69.67
34237;BME280;20501;45.956;13.632;2022-12-17T01:22:52;99934.41;;;12.02;70.75
34237;BME280;20501;45.956;13.632;2022-12-17T01:25:36;99929.56;;;11.71;71.53
34237;BME280;20501;45.956;13.632;2022-12-17T01:28:24;99933.94;;;11.64;71.85
34237;BME280;20501;45.956;13.632;2022-12-17T01:31:09;99936.75;;;11.97;70.13
34237;BME280;20501;45.956;13.632;2022-12-17T01:33:53;99947.25;;;12.00;70.25
34237;BME280;20501;45.956;13.632;2022-12-17T01:36:37;99956.66;;;12.22;69.16
34237;BME280;20501;45.956;13.632;2022-12-17T01:39:21;99953.94;;;12.14;69.48
34237;BME280;20501;45.956;13.632;2022-12-17T01:42:10;99956.81;;;11.77;70.99
34237;BME280;20501;45.956;13.632;2022-12-17T01:44:55;99964.22;;;11.67;72.38
34237;BME280;20501;45.956;13.632;2022-12-17T01:47:46;99962.38;;;11.41;74.25
34237;BME280;20501;45.956;13.632;2022-12-17T01:50:38;99966.22;;;11.30;74.47
34237;BME280;20501;45.956;13.632;2022-12-17T01:53:28;99975.09;;;11.14;74.59
34237;BME280;20501;45.956;13.632;2022-12-17T01:56:13;99992.41;;;10.31;77.97
34237;BME280;20501;45.956;13.632;2022-12-17T01:58:58;99991.56;;;10.13;78.29
34237;BME280;20501;45.956;13.632;2022-12-17T02:01:42;100009.25;;;9.97;79.58
34237;BME280;20501;45.956;13.632;2022-12-17T02:04:26;100001.41;;;10.50;76.84
34237;BME280;20501;45.956;13.632;2022-12-17T02:07:16;100001.47;;;10.76;75.70
34237;BME280;20501;45.956;13.632;2022-12-17T02:13:39;100014.13;;;10.12;77.71
34237;BME280;20501;45.956;13.632;2022-12-17T02:16:29;100023.03;;;10.22;77.42
34237;BME280;20501;45.956;13.632;2022-12-17T02:22:36;100020.63;;;9.16;81.38
34237;BME280;20501;45.956;13.632;2022-12-17T02:25:45;100031.00;;;9.58;79.63
34237;BME280;20501;45.956;13.632;2022-12-17T02:28:33;100030.56;;;8.56;81.68
34237;BME280;20501;45.956;13.632;2022-12-17T02:31:19;100036.81;;;8.16;83.10
34237;BME280;20501;45.956;13.632;2022-12-17T02:34:05;100040.59;;;7.94;82.86
34237;BME280;20501;45.956;13.632;2022-12-17T02:36:49;100040.50;;;8.85;81.19
34237;BME280;20501;45.956;13.632;2022-12-17T02:39:32;100050.97;;;9.18;79.40
34237;BME280;20501;45.956;13.632;2022-12-17T02:42:17;100044.31;;;8.92;80.17
34237;BME280;20501;45.956;13.632;2022-12-17T02:45:01;100059.47;;;9.23;78.94
34237;BME280;20501;45.956;13.632;2022-12-17T02:47:45;100074.63;;;9.24;79.54
34237;BME280;20501;45.956;13.632;2022-12-17T02:50:29;100076.69;;;9.97;76.78
34237;BME280;20501;45.956;13.632;2022-12-17T02:53:14;100070.28;;;10.08;75.48
34237;BME280;20501;45.956;13.632;2022-12-17T02:55:58;100069.56;;;10.62;73.43
34237;BME280;20501;45.956;13.632;2022-12-17T02:58:42;100078.19;;;11.02;72.28
34237;BME280;20501;45.956;13.632;2022-12-17T03:01:25;100077.88;;;11.05;71.87
34237;BME280;20501;45.956;13.632;2022-12-17T03:04:09;100084.13;;;8.69;79.13
34237;BME280;20501;45.956;13.632;2022-12-17T03:06:53;100089.72;;;9.74;77.07
34237;BME280;20501;45.956;13.632;2022-12-17T03:09:37;100094.63;;;9.31;77.80
34237;BME280;20501;45.956;13.632;2022-12-17T03:12:21;100099.63;;;9.83;76.67
34237;BME280;20501;45.956;13.632;2022-12-17T03:15:05;100091.03;;;10.35;74.50
34237;BME280;20501;45.956;13.632;2022-12-17T03:17:49;100096.72;;;10.78;72.68
34237;BME280;20501;45.956;13.632;2022-12-17T03:20:34;100105.56;;;9.39;75.79
34237;BME280;20501;45.956;13.632;2022-12-17T03:23:18;100114.91;;;11.04;72.00
34237;BME280;20501;45.956;13.632;2022-12-17T03:26:02;100118.41;;;10.13;75.51
34237;BME280;20501;45.956;13.632;2022-12-17T03:28:47;100108.97;;;11.45;70.21
34237;BME280;20501;45.956;13.632;2022-12-17T03:31:31;100116.78;;;11.74;68.61
34237;BME280;20501;45.956;13.632;2022-12-17T03:34:15;100107.84;;;11.29;69.35
34237;BME280;20501;45.956;13.632;2022-12-17T03:36:59;100114.63;;;9.96;75.48
34237;BME280;20501;45.956;13.632;2022-12-17T03:39:43;100114.78;;;11.14;71.51
34237;BME280;20501;45.956;13.632;2022-12-17T03:42:27;100120.22;;;10.78;71.85
34237;BME280;20501;45.956;13.632;2022-12-17T03:45:11;100111.09;;;11.15;70.99
34237;BME280;20501;45.956;13.632;2022-12-17T03:48:10;100112.13;;;11.85;68.30
34237;BME280;20501;45.956;13.632;2022-12-17T03:50:55;100120.72;;;12.06;67.67
34237;BME280;20501;45.956;13.632;2022-12-17T03:53:40;100113.66;;;10.98;71.32
34237;BME280;20501;45.956;13.632;2022-12-17T03:56:24;100113.09;;;9.26;78.07
34237;BME280;20501;45.956;13.632;2022-12-17T03:59:09;100121.47;;;10.28;74.33
34237;BME280;20501;45.956;13.632;2022-12-17T04:01:53;100130.66;;;9.10;77.17
34237;BME280;20501;45.956;13.632;2022-12-17T04:04:37;100143.09;;;10.56;72.81
34237;BME280;20501;45.956;13.632;2022-12-17T04:07:21;100141.50;;;10.81;71.70
34237;BME280;20501;45.956;13.632;2022-12-17T04:10:05;100134.22;;;11.54;69.49
34237;BME280;20501;45.956;13.632;2022-12-17T04:12:48;100137.03;;;11.44;69.50
34237;BME280;20501;45.956;13.632;2022-12-17T04:15:32;100140.63;;;11.71;68.72
34237;BME280;20501;45.956;13.632;2022-12-17T04:18:16;100143.09;;;11.64;68.57
34237;BME280;20501;45.956;13.632;2022-12-17T04:21:00;100141.03;;;12.02;67.23
34237;BME280;20501;45.956;13.632;2022-12-17T04:23:44;100147.88;;;12.15;66.85
34237;BME280;20501;45.956;13.632;2022-12-17T04:26:28;100150.94;;;12.20;66.60
34237;BME280;20501;45.956;13.632;2022-12-17T04:29:12;100153.84;;;12.27;66.50
34237;BME280;20501;45.956;13.632;2022-12-17T04:31:56;100166.38;;;12.28;66.41
34237;BME280;20501;45.956;13.632;2022-12-17T04:34:40;100171.94;;;12.26;66.21
34237;BME280;20501;45.956;13.632;2022-12-17T04:37:24;100176.69;;;12.24;66.24
34237;BME280;20501;45.956;13.632;2022-12-17T04:40:09;100193.16;;;10.02;72.51
34237;BME280;20501;45.956;13.632;2022-12-17T04:42:53;100206.50;;;10.04;73.85
34237;BME280;20501;45.956;13.632;2022-12-17T04:45:37;100202.88;;;11.53;68.97
34237;BME280;20501;45.956;13.632;2022-12-17T04:48:21;100202.28;;;11.85;67.47
34237;BME280;20501;45.956;13.632;2022-12-17T04:51:05;100188.38;;;11.98;67.24
34237;BME280;20501;45.956;13.632;2022-12-17T04:53:49;100194.91;;;11.33;67.88
34237;BME280;20501;45.956;13.632;2022-12-17T04:56:33;100197.03;;;9.80;72.75
34237;BME280;20501;45.956;13.632;2022-12-17T04:59:17;100194.25;;;10.19;73.32
34237;BME280;20501;45.956;13.632;2022-12-17T05:02:01;100193.69;;;10.53;69.52
34237;BME280;20501;45.956;13.632;2022-12-17T05:04:45;100194.25;;;9.33;72.68
34237;BME280;20501;45.956;13.632;2022-12-17T05:07:28;100195.16;;;8.82;73.59
34237;BME280;20501;45.956;13.632;2022-12-17T05:10:12;100193.66;;;9.19;76.03
34237;BME280;20501;45.956;13.632;2022-12-17T05:13:00;100196.53;;;10.80;70.34
34237;BME280;20501;45.956;13.632;2022-12-17T05:15:45;100194.91;;;9.74;71.23
34237;BME280;20501;45.956;13.632;2022-12-17T05:18:29;100201.31;;;9.43;72.16
34237;BME280;20501;45.956;13.632;2022-12-17T05:21:13;100197.06;;;10.65;71.38
34237;BME280;20501;45.956;13.632;2022-12-17T05:23:56;100215.72;;;8.83;76.09
34237;BME280;20501;45.956;13.632;2022-12-17T05:26:48;100216.34;;;8.56;78.47
34237;BME280;20501;45.956;13.632;2022-12-17T05:29:32;100230.88;;;10.22;73.29
34237;BME280;20501;45.956;13.632;2022-12-17T05:32:16;100237.03;;;11.54;68.27
34237;BME280;20501;45.956;13.632;2022-12-17T05:35:00;100239.09;;;10.78;71.08
34237;BME280;20501;45.956;13.632;2022-12-17T05:37:44;100250.00;;;9.62;72.90
34237;BME280;20501;45.956;13.632;2022-12-17T05:40:28;100258.59;;;8.65;77.92
34237;BME280;20501;45.956;13.632;2022-12-17T05:43:12;100260.59;;;10.69;71.58
34237;BME280;20501;45.956;13.632;2022-12-17T05:45:59;100259.28;;;11.29;69.05
34237;BME280;20501;45.956;13.632;2022-12-17T05:48:43;100269.09;;;10.47;69.97
34237;BME280;20501;45.956;13.632;2022-12-17T05:51:27;100277.09;;;11.04;69.59
34237;BME280;20501;45.956;13.632;2022-12-17T05:54:11;100277.28;;;11.39;68.32
34237;BME280;20501;45.956;13.632;2022-12-17T05:56:55;100280.38;;;11.62;67.27
34237;BME280;20501;45.956;13.632;2022-12-17T05:59:39;100284.56;;;11.56;65.91
34237;BME280;20501;45.956;13.632;2022-12-17T06:02:24;100282.31;;;11.88;66.24
34237;BME280;20501;45.956;13.632;2022-12-17T06:05:08;100301.56;;;11.85;66.48
34237;BME280;20501;45.956;13.632;2022-12-17T06:07:52;100299.72;;;11.85;66.35
34237;BME280;20501;45.956;13.632;2022-12-17T06:10:37;100307.47;;;11.98;65.88
34237;BME280;20501;45.956;13.632;2022-12-17T06:13:21;100314.25;;;10.92;67.82
34237;BME280;20501;45.956;13.632;2022-12-17T06:16:05;100313.72;;;8.61;78.09
34237;BME280;20501;45.956;13.632;2022-12-17T06:18:49;100327.00;;;11.10;69.34
34237;BME280;20501;45.956;13.632;2022-12-17T06:21:33;100335.03;;;9.56;71.61
34237;BME280;20501;45.956;13.632;2022-12-17T06:24:17;100332.28;;;9.46;70.97
34237;BME280;20501;45.956;13.632;2022-12-17T06:27:01;100335.16;;;7.55;78.20
34237;BME280;20501;45.956;13.632;2022-12-17T06:29:44;100340.06;;;9.29;76.61
34237;BME280;20501;45.956;13.632;2022-12-17T06:32:29;100345.09;;;10.99;69.53
34237;BME280;20501;45.956;13.632;2022-12-17T06:35:12;100354.78;;;10.92;69.42
34237;BME280;20501;45.956;13.632;2022-12-17T06:38:01;100346.41;;;11.23;67.95
34237;BME280;20501;45.956;13.632;2022-12-17T06:40:45;100350.28;;;11.85;66.05
34237;BME280;20501;45.956;13.632;2022-12-17T06:43:29;100353.47;;;11.80;66.09
34237;BME280;20501;45.956;13.632;2022-12-17T06:46:13;100362.25;;;11.08;66.43
34237;BME280;20501;45.956;13.632;2022-12-17T06:48:57;100375.06;;;9.20;74.79
34237;BME280;20501;45.956;13.632;2022-12-17T06:51:41;100396.66;;;10.78;70.03
34237;BME280;20501;45.956;13.632;2022-12-17T06:54:25;100397.63;;;11.53;67.06
34237;BME280;20501;45.956;13.632;2022-12-17T06:57:13;100404.75;;;11.26;68.02
34237;BME280;20501;45.956;13.632;2022-12-17T06:59:57;100408.28;;;11.82;66.35
34237;BME280;20501;45.956;13.632;2022-12-17T07:02:42;100412.44;;;10.83;68.97
34237;BME280;20501;45.956;13.632;2022-12-17T07:05:26;100410.69;;;11.85;66.11
34237;BME280;20501;45.956;13.632;2022-12-17T07:08:10;100421.28;;;8.84;74.82
34237;BME280;20501;45.956;13.632;2022-12-17T07:10:54;100429.19;;;9.88;72.70
34237;BME280;20501;45.956;13.632;2022-12-17T07:13:38;100426.34;;;11.36;68.04
34237;BME280;20501;45.956;13.632;2022-12-17T07:16:22;100438.66;;;10.53;69.82
34237;BME280;20501;45.956;13.632;2022-12-17T07:19:06;100450.88;;;10.47;71.25
34237;BME280;20501;45.956;13.632;2022-12-17T07:21:50;100455.66;;;11.68;66.61
34237;BME280;20501;45.956;13.632;2022-12-17T07:24:34;100462.75;;;11.97;65.80
34237;BME280;20501;45.956;13.632;2022-12-17T07:27:18;100462.28;;;11.18;66.84
34237;BME280;20501;45.956;13.632;2022-12-17T07:30:02;100468.47;;;9.00;74.73
34237;BME280;20501;45.956;13.632;2022-12-17T07:32:46;100476.72;;;10.89;70.09
34237;BME280;20501;45.956;13.632;2022-12-17T07:35:30;100479.72;;;11.71;66.96
34237;BME280;20501;45.956;13.632;2022-12-17T07:38:15;100477.88;;;12.00;65.56
34237;BME280;20501;45.956;13.632;2022-12-17T07:40:59;100479.41;;;11.46;65.83
34237;BME280;20501;45.956;13.632;2022-12-17T07:43:43;100489.31;;;9.28;73.69
34237;BME280;20501;45.956;13.632;2022-12-17T07:46:27;100494.16;;;10.26;72.25
34237;BME280;20501;45.956;13.632;2022-12-17T07:49:10;100500.41;;;7.95;77.18
34237;BME280;20501;45.956;13.632;2022-12-17T07:51:54;100507.72;;;10.56;71.53
34237;BME280;20501;45.956;13.632;2022-12-17T07:54:38;100519.34;;;11.25;68.39
34237;BME280;20501;45.956;13.632;2022-12-17T07:57:22;100510.66;;;11.21;68.25
34237;BME280;20501;45.956;13.632;2022-12-17T08:00:06;100521.66;;;10.51;69.74
34237;BME280;20501;45.956;13.632;2022-12-17T08:02:57;100525.38;;;9.99;72.26
34237;BME280;20501;45.956;13.632;2022-12-17T08:05:42;100530.63;;;9.91;73.36
34237;BME280;20501;45.956;13.632;2022-12-17T08:08:25;100529.03;;;10.98;69.79
34237;BME280;20501;45.956;13.632;2022-12-17T08:11:09;100537.28;;;11.64;67.14
34237;BME280;20501;45.956;13.632;2022-12-17T08:13:53;100545.16;;;11.85;66.33
34237;BME280;20501;45.956;13.632;2022-12-17T08:16:38;100547.63;;;11.78;66.52
34237;BME280;20501;45.956;13.632;2022-12-17T08:19:22;100556.63;;;12.06;65.62
34237;BME280;20501;45.956;13.632;2022-12-17T08:22:06;100567.34;;;12.08;65.39
34237;BME280;20501;45.956;13.632;2022-12-17T08:24:49;100573.84;;;12.15;65.01
34237;BME280;20501;45.956;13.632;2022-12-17T08:27:33;100579.97;;;12.17;65.17
34237;BME280;20501;45.956;13.632;2022-12-17T08:30:17;100590.47;;;12.20;64.99
34237;BME280;20501;45.956;13.632;2022-12-17T08:33:03;100594.06;;;12.21;64.89
34237;BME280;20501;45.956;13.632;2022-12-17T08:35:55;100609.91;;;11.68;67.05
34237;BME280;20501;45.956;13.632;2022-12-17T08:38:39;100616.53;;;11.93;66.03
34237;BME280;20501;45.956;13.632;2022-12-17T08:41:23;100616.16;;;9.69;74.24
34237;BME280;20501;45.956;13.632;2022-12-17T08:44:06;100625.78;;;10.75;70.81
34237;BME280;20501;45.956;13.632;2022-12-17T08:46:50;100630.16;;;11.54;68.06
34237;BME280;20501;45.956;13.632;2022-12-17T08:49:34;100631.00;;;11.65;67.45
34237;BME280;20501;45.956;13.632;2022-12-17T08:52:18;100642.44;;;11.49;67.94
34237;BME280;20501;45.956;13.632;2022-12-17T08:55:22;100650.81;;;10.36;71.02
34237;BME280;20501;45.956;13.632;2022-12-17T08:58:07;100659.50;;;11.49;68.36
34237;BME280;20501;45.956;13.632;2022-12-17T09:00:51;100664.59;;;11.82;66.73
34237;BME280;20501;45.956;13.632;2022-12-17T09:03:35;100673.22;;;11.95;65.89
34237;BME280;20501;45.956;13.632;2022-12-17T09:06:19;100674.41;;;10.03;73.01
34237;BME280;20501;45.956;13.632;2022-12-17T09:09:03;100673.16;;;11.67;67.52
34237;BME280;20501;45.956;13.632;2022-12-17T09:11:47;100675.09;;;11.95;66.03
34237;BME280;20501;45.956;13.632;2022-12-17T09:14:31;100681.63;;;12.12;65.50
34237;BME280;20501;45.956;13.632;2022-12-17T09:17:14;100692.56;;;10.01;69.11
34237;BME280;20501;45.956;13.632;2022-12-17T09:19:59;100693.31;;;8.63;76.77
34237;BME280;20501;45.956;13.632;2022-12-17T09:22:43;100698.66;;;11.25;68.85
34237;BME280;20501;45.956;13.632;2022-12-17T09:25:27;100693.25;;;11.25;67.78
34237;BME280;20501;45.956;13.632;2022-12-17T09:28:10;100700.06;;;11.49;67.31
34237;BME280;20501;45.956;13.632;2022-12-17T09:31:00;100706.63;;;11.66;64.45
34237;BME280;20501;45.956;13.632;2022-12-17T09:33:45;100714.44;;;11.01;66.87
34237;BME280;20501;45.956;13.632;2022-12-17T09:36:29;100718.44;;;11.65;66.94
34237;BME280;20501;45.956;13.632;2022-12-17T09:39:13;100716.84;;;11.92;66.03
34237;BME280;20501;45.956;13.632;2022-12-17T09:50:51;100732.38;;;11.90;65.78
34237;BME280;20501;45.956;13.632;2022-12-17T09:53:44;100730.09;;;11.75;65.76
34237;BME280;20501;45.956;13.632;2022-12-17T09:56:30;100731.50;;;10.29;70.49
34237;BME280;20501;45.956;13.632;2022-12-17T09:59:22;100737.50;;;11.83;66.04
34237;BME280;20501;45.956;13.632;2022-12-17T10:02:12;100750.19;;;9.90;69.16
34237;BME280;20501;45.956;13.632;2022-12-17T10:05:24;100747.72;;;11.01;68.63
34237;BME280;20501;45.956;13.632;2022-12-17T10:08:13;100753.06;;;11.61;66.92
34237;BME280;20501;45.956;13.632;2022-12-17T10:10:57;100752.31;;;11.79;66.28
34237;BME280;20501;45.956;13.632;2022-12-17T10:13:44;100750.69;;;8.75;71.83
34237;BME280;20501;45.956;13.632;2022-12-17T10:16:32;100754.97;;;9.65;73.10
34237;BME280;20501;45.956;13.632;2022-12-17T10:19:32;100755.09;;;10.89;69.49
34237;BME280;20501;45.956;13.632;2022-12-17T10:22:19;100760.66;;;11.07;68.91
34237;BME280;20501;45.956;13.632;2022-12-17T10:25:14;100762.94;;;10.61;68.90
34237;BME280;20501;45.956;13.632;2022-12-17T10:28:25;100768.94;;;9.70;73.18
34237;BME280;20501;45.956;13.632;2022-12-17T10:31:10;100763.91;;;10.91;69.44
34237;BME280;20501;45.956;13.632;2022-12-17T10:33:58;100760.59;;;9.62;69.43
34237;BME280;20501;45.956;13.632;2022-12-17T10:36:49;100769.84;;;11.45;67.53
34237;BME280;20501;45.956;13.632;2022-12-17T10:39:34;100771.38;;;11.97;65.36
34237;BME280;20501;45.956;13.632;2022-12-17T10:42:26;100769.88;;;11.55;66.77
34237;BME280;20501;45.956;13.632;2022-12-17T10:45:28;100774.56;;;11.53;67.15
34237;BME280;20501;45.956;13.632;2022-12-17T10:48:22;100782.25;;;11.77;65.97
34237;BME280;20501;45.956;13.632;2022-12-17T10:54:33;100774.66;;;12.20;64.42
34237;BME280;20501;45.956;13.632;2022-12-17T11:03:01;100789.97;;;11.02;67.96
34237;BME280;20501;45.956;13.632;2022-12-17T11:06:02;100786.66;;;11.69;65.75
34237;BME280;20501;45.956;13.632;2022-12-17T11:08:46;100789.06;;;11.91;65.34
34237;BME280;20501;45.956;13.632;2022-12-17T11:11:30;100790.28;;;11.19;65.21
34237;BME280;20501;45.956;13.632;2022-12-17T11:14:14;100787.97;;;9.25;74.17
34237;BME280;20501;45.956;13.632;2022-12-17T11:17:02;100796.31;;;11.32;67.70
34237;BME280;20501;45.956;13.632;2022-12-17T11:19:53;100800.03;;;11.51;66.85
34237;BME280;20501;45.956;13.632;2022-12-17T11:22:50;100809.28;;;11.68;65.60
34237;BME280;20501;45.956;13.632;2022-12-17T11:28:37;100813.94;;;11.26;67.02
34237;BME280;20501;45.956;13.632;2022-12-17T11:37:26;100827.69;;;10.63;66.19
34237;BME280;20501;45.956;13.632;2022-12-17T11:46:52;100829.41;;;11.95;65.45
34237;BME280;20501;45.956;13.632;2022-12-17T11:53:09;100831.13;;;12.15;64.40
34237;BME280;20501;45.956;13.632;2022-12-17T11:56:22;100836.00;;;11.12;65.92
34237;BME280;20501;45.956;13.632;2022-12-17T11:59:39;100838.94;;;10.26;67.05
34237;BME280;20501;45.956;13.632;2022-12-17T12:02:43;100839.72;;;10.59;70.32
34237;BME280;20501;45.956;13.632;2022-12-17T12:05:56;100842.38;;;9.07;71.00
34237;BME280;20501;45.956;13.632;2022-12-17T12:09:19;100849.25;;;7.83;74.23
34237;BME280;20501;45.956;13.632;2022-12-17T12:15:23;100852.63;;;9.48;69.74
34237;BME280;20501;45.956;13.632;2022-12-17T12:18:17;100863.88;;;9.97;70.91
34237;BME280;20501;45.956;13.632;2022-12-17T12:29:46;100876.50;;;9.52;66.79
34237;BME280;20501;45.956;13.632;2022-12-17T12:32:41;100874.88;;;8.36;68.85
34237;BME280;20501;45.956;13.632;2022-12-17T12:35:28;100876.56;;;8.73;69.46
34237;BME280;20501;45.956;13.632;2022-12-17T12:38:28;100870.47;;;8.35;67.62
34237;BME280;20501;45.956;13.632;2022-12-17T12:41:20;100885.75;;;8.34;69.88
34237;BME280;20501;45.956;13.632;2022-12-17T12:44:41;100884.00;;;8.22;69.37
34237;BME280;20501;45.956;13.632;2022-12-17T12:50:59;100883.19;;;8.80;69.47
34237;BME280;20501;45.956;13.632;2022-12-17T12:53:41;100887.88;;;7.82;68.61
34237;BME280;20501;45.956;13.632;2022-12-17T12:56:33;100882.72;;;7.55;68.52
34237;BME280;20501;45.956;13.632;2022-12-17T12:59:31;100879.50;;;7.98;69.08
34237;BME280;20501;45.956;13.632;2022-12-17T13:05:03;100887.28;;;8.50;67.05
34237;BME280;20501;45.956;13.632;2022-12-17T13:07:48;100893.81;;;8.59;67.27
34237;BME280;20501;45.956;13.632;2022-12-17T13:10:43;100891.66;;;8.04;65.90
34237;BME280;20501;45.956;13.632;2022-12-17T13:13:21;100892.38;;;9.78;66.47
34237;BME280;20501;45.956;13.632;2022-12-17T13:15:53;100894.00;;;10.77;64.83
34237;BME280;20501;45.956;13.632;2022-12-17T13:18:22;100905.66;;;11.08;63.84
34237;BME280;20501;45.956;13.632;2022-12-17T13:23:40;100911.59;;;10.50;66.23
34237;BME280;20501;45.956;13.632;2022-12-17T13:28:40;100920.00;;;10.47;64.61
34237;BME280;20501;45.956;13.632;2022-12-17T13:31:16;100933.34;;;10.91;65.48
34237;BME280;20501;45.956;13.632;2022-12-17T13:41:34;100946.13;;;9.02;66.41
34237;BME280;20501;45.956;13.632;2022-12-17T13:44:26;100950.53;;;9.03;66.44
34237;BME280;20501;45.956;13.632;2022-12-17T13:46:55;100951.94;;;8.61;62.61
34237;BME280;20501;45.956;13.632;2022-12-17T13:49:25;100957.06;;;9.11;69.63
34237;BME280;20501;45.956;13.632;2022-12-17T13:52:26;100962.66;;;8.97;63.64
34237;BME280;20501;45.956;13.632;2022-12-17T13:54:51;100967.72;;;8.55;64.32
34237;BME280;20501;45.956;13.632;2022-12-17T13:59:50;100970.53;;;9.23;63.91
34237;BME280;20501;45.956;13.632;2022-12-17T14:02:29;100985.00;;;9.33;63.25
34237;BME280;20501;45.956;13.632;2022-12-17T14:04:57;100984.81;;;10.47;63.54
34237;BME280;20501;45.956;13.632;2022-12-17T14:07:24;100984.88;;;10.24;60.46
34237;BME280;20501;45.956;13.632;2022-12-17T14:09:50;100987.84;;;9.43;64.85
34237;BME280;20501;45.956;13.632;2022-12-17T14:12:18;100995.78;;;9.22;67.56
34237;BME280;20501;45.956;13.632;2022-12-17T14:15:03;101010.25;;;10.87;63.06
34237;BME280;20501;45.956;13.632;2022-12-17T14:17:37;101013.13;;;10.09;60.19
34237;BME280;20501;45.956;13.632;2022-12-17T14:20:12;101020.56;;;10.93;64.05
34237;BME280;20501;45.956;13.632;2022-12-17T14:22:40;101025.97;;;10.28;60.90
34237;BME280;20501;45.956;13.632;2022-12-17T14:25:22;101024.13;;;10.72;62.45
34237;BME280;20501;45.956;13.632;2022-12-17T14:30:40;101035.63;;;11.38;61.71
34237;BME280;20501;45.956;13.632;2022-12-17T14:33:26;101043.66;;;11.80;61.06
34237;BME280;20501;45.956;13.632;2022-12-17T14:35:53;101045.06;;;11.74;61.45
34237;BME280;20501;45.956;13.632;2022-12-17T14:38:19;101058.38;;;11.97;60.79
34237;BME280;20501;45.956;13.632;2022-12-17T14:40:45;101058.16;;;11.17;62.64
34237;BME280;20501;45.956;13.632;2022-12-17T14:43:12;101063.00;;;11.66;59.80
34237;BME280;20501;45.956;13.632;2022-12-17T14:45:38;101065.94;;;11.93;61.25
34237;BME280;20501;45.956;13.632;2022-12-17T14:48:32;101064.16;;;10.99;62.98
34237;BME280;20501;45.956;13.632;2022-12-17T14:51:22;101072.72;;;11.26;63.38
34237;BME280;20501;45.956;13.632;2022-12-17T14:53:48;101081.56;;;11.28;61.91
34237;BME280;20501;45.956;13.632;2022-12-17T14:56:21;101077.81;;;11.71;61.86
34237;BME280;20501;45.956;13.632;2022-12-17T14:58:47;101082.16;;;10.45;64.36
34237;BME280;20501;45.956;13.632;2022-12-17T15:01:13;101077.47;;;9.69;68.76
34237;BME280;20501;45.956;13.632;2022-12-17T15:03:41;101082.28;;;11.09;64.13
34237;BME280;20501;45.956;13.632;2022-12-17T15:06:09;101087.53;;;11.74;61.90
34237;BME280;20501;45.956;13.632;2022-12-17T15:08:39;101094.25;;;11.89;61.35
34237;BME280;20501;45.956;13.632;2022-12-17T15:11:04;101097.63;;;12.03;60.92
34237;BME280;20501;45.956;13.632;2022-12-17T15:13:30;101102.63;;;11.76;61.68
34237;BME280;20501;45.956;13.632;2022-12-17T15:15:56;101099.44;;;10.65;61.95
34237;BME280;20501;45.956;13.632;2022-12-17T15:18:21;101106.38;;;11.12;63.89
34237;BME280;20501;45.956;13.632;2022-12-17T15:20:47;101102.63;;;11.76;61.64
34237;BME280;20501;45.956;13.632;2022-12-17T15:23:17;101116.22;;;10.14;61.30
34237;BME280;20501;45.956;13.632;2022-12-17T15:25:45;101123.38;;;11.45;62.91
34237;BME280;20501;45.956;13.632;2022-12-17T15:28:11;101128.38;;;10.75;60.42
34237;BME280;20501;45.956;13.632;2022-12-17T15:30:36;101129.50;;;11.05;64.18
34237;BME280;20501;45.956;13.632;2022-12-17T15:33:04;101133.06;;;11.05;64.35